Livingston, South Carolina
Current Conditions -  °F | °C
As of 2:53 PM on Sunday 23 Nov 2014 (Local Time) from KOGB Reporting Station
Light Rain Light Rain  
Wind Chill: 65°   Ceiling: 800
Heat Index: 65°   Visibility: 2.5mi
Dew Point: 62°   Wind: 9mph
Humidity: 90%   Direction: 130°SE
Pressure: 29.89"   Gusts: NA
Location:  33.538°N, 81.0853°W
Report Text: KOGB 231953Z AUTO 13008KT 2 1/2SM -RA BR OVC008 18/17 A2989 RMK AO2 CIG 006V011 SLP120 P0006 T01830167
Loading
Personal Weather Stations






























Interactive Weather Map New forecast layout! Learn more

10-Day Weather Forecast

Advertisements
Track Severe Weather on mobile